createdAt,value
2023-03-14T00:01:27.982Z,11.40
2023-03-14T00:03:55.417Z,11.40
2023-03-14T00:06:22.414Z,11.30
2023-03-14T00:08:49.363Z,11.40
2023-03-14T00:11:19.672Z,11.30
2023-03-14T00:13:51.014Z,11.40
2023-03-14T00:16:18.198Z,11.40
2023-03-14T00:18:45.062Z,11.40
2023-03-14T00:21:12.686Z,11.30
2023-03-14T00:23:41.767Z,11.30
2023-03-14T00:26:11.807Z,11.30
2023-03-14T00:28:39.048Z,11.30
2023-03-14T00:31:07.829Z,11.20
2023-03-14T00:33:35.644Z,11.20
2023-03-14T00:36:12.921Z,11.10
2023-03-14T00:38:41.410Z,11.20
2023-03-14T00:41:11.239Z,11.20
2023-03-14T00:43:38.866Z,11.20
2023-03-14T00:46:06.410Z,11.20
2023-03-14T00:48:33.331Z,11.20
2023-03-14T00:51:02.030Z,11.20
2023-03-14T00:53:28.734Z,11.10
2023-03-14T00:55:55.580Z,11.20
2023-03-14T00:58:22.544Z,11.20
2023-03-14T01:00:49.770Z,11.20
2023-03-14T01:03:17.709Z,11.20
2023-03-14T01:05:44.546Z,11.20
2023-03-14T01:08:12.760Z,11.30
2023-03-14T01:10:41.313Z,11.30
2023-03-14T01:13:09.118Z,11.40
2023-03-14T01:15:37.632Z,11.40
2023-03-14T01:18:05.271Z,11.40
2023-03-14T01:20:32.123Z,11.40
2023-03-14T01:22:58.974Z,11.40
2023-03-14T01:25:25.774Z,11.20
2023-03-14T01:27:52.803Z,11.10
2023-03-14T01:30:19.694Z,10.90
2023-03-14T01:32:46.664Z,10.70
2023-03-14T01:35:13.754Z,10.50
2023-03-14T01:37:40.763Z,10.40
2023-03-14T01:40:14.926Z,10.20
2023-03-14T01:42:55.751Z,10.10
2023-03-14T01:46:00.751Z,10.00
2023-03-14T01:48:31.997Z,10.00
2023-03-14T01:51:01.367Z,9.90
2023-03-14T01:53:29.139Z,9.80
2023-03-14T01:55:59.921Z,9.70
2023-03-14T01:58:31.947Z,9.60
2023-03-14T02:01:00.547Z,9.60
2023-03-14T02:03:30.181Z,9.60
2023-03-14T02:06:00.644Z,9.50
2023-03-14T02:08:28.413Z,9.50
2023-03-14T02:10:59.458Z,9.50
2023-03-14T02:13:44.175Z,9.50
2023-03-14T02:16:34.117Z,9.50
2023-03-14T02:19:32.790Z,9.40
2023-03-14T02:22:12.328Z,9.40
2023-03-14T02:25:09.655Z,9.40
2023-03-14T02:27:37.036Z,9.40
2023-03-14T02:30:10.804Z,9.40
2023-03-14T02:32:42.003Z,9.40
2023-03-14T02:35:12.462Z,9.40
2023-03-14T02:37:49.968Z,9.50
2023-03-14T02:40:17.557Z,9.50
2023-03-14T02:42:46.163Z,9.40
2023-03-14T02:45:13.351Z,9.50
2023-03-14T02:47:54.211Z,9.50
2023-03-14T02:50:25.725Z,9.50
2023-03-14T02:52:52.532Z,9.50
2023-03-14T02:55:23.639Z,9.50
2023-03-14T02:57:52.609Z,9.50
2023-03-14T03:00:20.510Z,9.40
2023-03-14T03:02:47.502Z,9.50
2023-03-14T03:05:15.406Z,9.40
2023-03-14T03:07:42.226Z,9.50
2023-03-14T03:10:10.498Z,9.40
2023-03-14T03:12:37.700Z,9.40
2023-03-14T03:15:06.021Z,9.40
2023-03-14T03:17:35.919Z,9.40
2023-03-14T03:20:04.520Z,9.50
2023-03-14T03:22:31.398Z,9.50
2023-03-14T03:24:58.192Z,9.50
2023-03-14T03:27:25.049Z,9.50
2023-03-14T03:29:52.493Z,9.40
2023-03-14T03:32:19.348Z,9.50
2023-03-14T03:34:46.208Z,9.50
2023-03-14T03:37:13.049Z,9.50
2023-03-14T03:39:41.823Z,9.50
2023-03-14T03:42:09.707Z,9.60
2023-03-14T03:44:37.031Z,9.60
2023-03-14T03:47:04.445Z,9.60
2023-03-14T03:49:32.658Z,9.60
2023-03-14T03:52:01.240Z,9.60
2023-03-14T03:54:29.707Z,9.60
2023-03-14T03:56:56.903Z,9.60
2023-03-14T03:59:23.974Z,9.60
2023-03-14T04:01:50.766Z,9.60
2023-03-14T04:04:17.697Z,9.60
2023-03-14T04:06:45.201Z,9.60
2023-03-14T04:09:13.125Z,9.60
2023-03-14T04:12:04.379Z,9.60
2023-03-14T04:14:51.339Z,9.60
2023-03-14T04:17:22.747Z,9.60
2023-03-14T04:19:52.235Z,9.50
2023-03-14T04:22:21.220Z,9.50
2023-03-14T04:24:50.896Z,9.50
2023-03-14T04:27:19.639Z,9.40
2023-03-14T04:29:47.651Z,9.30
2023-03-14T04:32:17.156Z,9.20
2023-03-14T04:34:43.957Z,9.20
2023-03-14T04:37:11.167Z,9.10
2023-03-14T04:39:42.501Z,9.10
2023-03-14T04:42:16.426Z,9.00
2023-03-14T04:44:44.267Z,9.00
2023-03-14T04:47:11.784Z,9.00
2023-03-14T04:49:40.083Z,9.00
2023-03-14T04:52:08.907Z,9.00
2023-03-14T04:54:37.299Z,9.00
2023-03-14T04:57:05.198Z,9.00
2023-03-14T04:59:34.756Z,9.00
2023-03-14T05:02:13.401Z,9.00
2023-03-14T05:05:03.064Z,9.00
2023-03-14T05:07:50.161Z,9.00
2023-03-14T05:10:26.529Z,9.00
2023-03-14T05:13:17.250Z,9.00
2023-03-14T05:16:07.777Z,9.00
2023-03-14T05:18:46.925Z,9.00
2023-03-14T05:21:33.891Z,9.00
2023-03-14T05:24:19.163Z,9.00
2023-03-14T05:26:45.985Z,9.00
2023-03-14T05:29:22.187Z,9.00
2023-03-14T05:32:04.691Z,9.00
2023-03-14T05:34:47.254Z,9.00
2023-03-14T05:37:28.690Z,9.00
2023-03-14T05:40:18.819Z,9.00
2023-03-14T05:43:24.232Z,9.00
2023-03-14T05:46:08.526Z,8.90
2023-03-14T05:48:59.097Z,8.90
2023-03-14T05:51:46.179Z,8.90
2023-03-14T05:54:35.878Z,8.90
2023-03-14T05:57:24.276Z,8.90
2023-03-14T06:00:11.515Z,9.00
2023-03-14T06:02:50.135Z,9.00
2023-03-14T06:05:23.103Z,9.00
2023-03-14T06:07:54.463Z,9.00
2023-03-14T06:10:21.956Z,9.00
2023-03-14T06:12:49.673Z,9.00
2023-03-14T06:15:16.527Z,9.10
2023-03-14T06:17:45.599Z,9.10
2023-03-14T06:20:13.727Z,9.10
2023-03-14T06:22:42.896Z,9.10
2023-03-14T06:25:11.352Z,9.10
2023-03-14T06:27:38.341Z,9.10
2023-03-14T06:30:06.130Z,9.10
2023-03-14T06:32:36.331Z,9.10
2023-03-14T06:35:07.568Z,9.10
2023-03-14T06:37:37.970Z,9.20
2023-03-14T06:40:06.286Z,9.20
2023-03-14T06:42:51.891Z,9.20
2023-03-14T06:45:20.894Z,9.30
2023-03-14T06:47:48.212Z,9.30
2023-03-14T06:50:16.123Z,9.20
2023-03-14T06:52:48.676Z,9.20
2023-03-14T06:55:21.273Z,9.30
2023-03-14T06:57:49.474Z,9.20
2023-03-14T07:00:16.731Z,9.30
2023-03-14T07:02:43.985Z,9.30
2023-03-14T07:05:26.734Z,9.40
2023-03-14T07:07:53.659Z,9.40
2023-03-14T07:10:21.148Z,9.40
2023-03-14T07:12:48.015Z,9.40
2023-03-14T07:15:19.121Z,9.40
2023-03-14T07:17:50.291Z,9.40
2023-03-14T07:20:19.233Z,9.50
2023-03-14T07:22:50.210Z,9.40
2023-03-14T07:25:20.257Z,9.50
2023-03-14T07:27:48.821Z,9.50
2023-03-14T07:30:15.857Z,9.60
2023-03-14T07:32:42.762Z,9.60
2023-03-14T07:35:10.397Z,9.60
2023-03-14T07:37:39.703Z,9.50
2023-03-14T07:40:08.193Z,9.60
2023-03-14T07:42:36.272Z,9.60
2023-03-14T07:45:15.678Z,9.70
2023-03-14T07:47:42.720Z,9.70
2023-03-14T07:50:10.417Z,9.70
2023-03-14T07:52:37.227Z,9.70
2023-03-14T07:55:04.343Z,9.80
2023-03-14T07:57:31.226Z,9.90
2023-03-14T07:59:58.001Z,9.90
2023-03-14T08:02:25.044Z,9.90
2023-03-14T08:04:51.868Z,9.90
2023-03-14T08:07:18.598Z,9.90
2023-03-14T08:09:45.399Z,9.90
2023-03-14T08:12:12.218Z,9.90
2023-03-14T08:14:39.027Z,9.90
2023-03-14T08:17:06.246Z,9.90
2023-03-14T08:19:33.049Z,9.90
2023-03-14T08:21:59.857Z,9.90
2023-03-14T08:24:26.670Z,9.90
2023-03-14T08:26:53.501Z,10.00
2023-03-14T08:29:20.596Z,10.00
2023-03-14T08:31:47.531Z,10.10
2023-03-14T08:34:14.349Z,10.10
2023-03-14T08:36:41.313Z,10.10
2023-03-14T08:39:08.719Z,10.20
2023-03-14T08:41:40.970Z,10.20
2023-03-14T08:44:08.967Z,10.20
2023-03-14T08:46:36.264Z,10.10
2023-03-14T08:49:03.209Z,10.10
2023-03-14T08:51:30.331Z,10.20
2023-03-14T08:53:57.114Z,10.20
2023-03-14T08:56:25.952Z,10.20
2023-03-14T08:58:53.025Z,10.30
2023-03-14T09:01:20.211Z,10.30
2023-03-14T09:03:49.047Z,10.40
2023-03-14T09:06:18.881Z,10.60
2023-03-14T09:08:46.516Z,10.60
2023-03-14T09:11:14.216Z,10.70
2023-03-14T09:13:41.973Z,10.70
2023-03-14T09:16:09.722Z,10.70
2023-03-14T09:18:36.783Z,10.70
2023-03-14T09:21:03.830Z,10.70
2023-03-14T09:23:31.480Z,10.70
2023-03-14T09:25:59.436Z,10.80
2023-03-14T09:28:27.087Z,10.80
2023-03-14T09:30:53.975Z,10.90
2023-03-14T09:33:20.834Z,10.90
2023-03-14T09:35:47.686Z,10.80
2023-03-14T09:38:14.552Z,10.70
2023-03-14T09:40:41.458Z,10.70
2023-03-14T09:43:13.199Z,10.60
2023-03-14T09:45:42.205Z,10.60
2023-03-14T09:48:16.626Z,10.50
2023-03-14T09:50:48.974Z,10.50
2023-03-14T09:53:19.417Z,10.40
2023-03-14T09:55:47.952Z,10.30
2023-03-14T09:58:21.015Z,10.30
2023-03-14T10:00:48.335Z,10.10
2023-03-14T10:03:22.681Z,10.00
2023-03-14T10:05:49.572Z,9.90
2023-03-14T10:08:16.342Z,9.70
2023-03-14T10:10:43.167Z,9.60
2023-03-14T10:13:27.033Z,9.50
2023-03-14T10:16:00.290Z,9.40
2023-03-14T10:18:30.339Z,9.30
2023-03-14T10:21:17.481Z,9.20
2023-03-14T10:23:44.287Z,9.20
2023-03-14T10:26:20.295Z,9.10
2023-03-14T10:28:52.162Z,9.10
2023-03-14T10:31:20.054Z,9.10
2023-03-14T10:34:02.257Z,9.00
2023-03-14T10:36:31.619Z,9.00
2023-03-14T10:39:19.548Z,8.90
2023-03-14T10:41:51.674Z,8.80
2023-03-14T10:44:25.061Z,8.70
2023-03-14T10:47:00.351Z,8.60
2023-03-14T10:49:36.834Z,8.50
2023-03-14T10:52:20.740Z,8.30
2023-03-14T10:54:49.661Z,8.30
2023-03-14T10:57:16.473Z,8.40
2023-03-14T10:59:44.980Z,8.40
2023-03-14T11:02:49.646Z,8.40
2023-03-14T11:05:22.356Z,8.30
2023-03-14T11:07:49.165Z,8.30
2023-03-14T11:10:32.176Z,8.30
2023-03-14T11:13:34.598Z,8.30
2023-03-14T11:16:22.770Z,8.20
2023-03-14T11:19:13.795Z,8.20
2023-03-14T11:22:14.414Z,8.00
2023-03-14T11:24:58.770Z,7.90
2023-03-14T11:27:49.217Z,7.80
2023-03-14T11:30:26.574Z,7.80
2023-03-14T11:33:16.500Z,7.70
2023-03-14T11:36:00.100Z,7.50
2023-03-14T11:38:43.971Z,7.40
2023-03-14T11:41:18.795Z,7.50
2023-03-14T11:43:49.685Z,7.50
2023-03-14T11:46:24.969Z,7.50
2023-03-14T11:49:04.521Z,7.60
2023-03-14T11:51:36.787Z,7.70
2023-03-14T11:54:22.388Z,7.60
2023-03-14T11:56:58.169Z,7.60
2023-03-14T11:59:34.056Z,7.40
2023-03-14T12:02:18.160Z,7.40
2023-03-14T12:04:45.829Z,7.40
2023-03-14T12:07:27.969Z,7.30
2023-03-14T12:09:56.010Z,7.20
2023-03-14T12:12:27.925Z,7.10
2023-03-14T12:14:58.966Z,7.10
2023-03-14T12:17:40.947Z,7.00
2023-03-14T12:20:22.918Z,7.00
2023-03-14T12:22:55.997Z,6.90
2023-03-14T12:25:26.203Z,6.80
2023-03-14T12:27:55.978Z,6.80
2023-03-14T12:30:38.712Z,6.70
2023-03-14T12:33:11.544Z,6.80
2023-03-14T12:35:42.716Z,6.80
2023-03-14T12:38:38.516Z,6.90
2023-03-14T12:41:23.323Z,7.10
2023-03-14T12:43:50.422Z,7.30
2023-03-14T12:46:28.008Z,7.40
2023-03-14T12:49:03.896Z,7.50
2023-03-14T12:51:44.421Z,7.60
2023-03-14T12:54:37.012Z,7.60
2023-03-14T12:57:06.550Z,7.70
2023-03-14T12:59:47.359Z,7.90
2023-03-14T13:02:29.554Z,8.10
2023-03-14T13:05:05.298Z,8.10
2023-03-14T13:07:45.231Z,8.10
2023-03-14T13:10:12.168Z,8.10
2023-03-14T13:12:54.135Z,8.20
2023-03-14T13:15:28.364Z,8.20
2023-03-14T13:17:59.857Z,8.10
2023-03-14T13:20:34.953Z,8.00
2023-03-14T13:23:02.081Z,7.80
2023-03-14T13:25:34.904Z,7.60
2023-03-14T13:28:03.511Z,7.30
2023-03-14T13:30:45.489Z,7.10
2023-03-14T13:33:20.713Z,6.80
2023-03-14T13:35:57.953Z,6.70
2023-03-14T13:38:26.339Z,6.70
2023-03-14T13:41:00.177Z,6.80
2023-03-14T13:43:33.066Z,6.90
2023-03-14T13:46:02.872Z,6.90
2023-03-14T13:48:31.491Z,7.00
2023-03-14T13:51:07.955Z,6.90
2023-03-14T13:53:47.800Z,6.90
2023-03-14T13:56:14.762Z,7.00
2023-03-14T13:58:42.224Z,7.00
2023-03-14T14:01:19.977Z,6.90
2023-03-14T14:03:52.249Z,6.90
2023-03-14T14:06:29.845Z,6.90
2023-03-14T14:08:59.555Z,6.90
2023-03-14T14:12:11.321Z,7.00
2023-03-14T14:14:57.164Z,7.00
2023-03-14T14:18:05.146Z,7.20
2023-03-14T14:20:45.890Z,7.60
2023-03-14T14:23:20.879Z,7.90
2023-03-14T14:25:50.031Z,8.20
2023-03-14T14:28:32.850Z,8.40
2023-03-14T14:31:15.624Z,8.30
2023-03-14T14:33:59.643Z,8.20
2023-03-14T14:36:32.974Z,8.20
2023-03-14T14:39:16.492Z,8.20
2023-03-14T14:41:44.193Z,8.40
2023-03-14T14:44:17.203Z,8.50
2023-03-14T14:46:44.253Z,8.80
2023-03-14T14:49:14.923Z,9.00
2023-03-14T14:51:49.740Z,9.20
2023-03-14T14:54:20.348Z,9.20
2023-03-14T14:56:52.539Z,9.10
2023-03-14T14:59:29.611Z,8.90
2023-03-14T15:01:58.875Z,8.50
2023-03-14T15:04:25.863Z,8.40
2023-03-14T15:06:53.975Z,8.20
2023-03-14T15:09:20.898Z,8.20
2023-03-14T15:11:48.774Z,8.10
2023-03-14T15:14:15.701Z,8.20
2023-03-14T15:16:42.842Z,8.20
2023-03-14T15:19:25.775Z,8.40
2023-03-14T15:21:54.058Z,8.40
2023-03-14T15:24:21.351Z,8.40
2023-03-14T15:26:48.421Z,8.10
2023-03-14T15:29:15.302Z,8.10
2023-03-14T15:31:43.960Z,7.90
2023-03-14T15:34:11.414Z,7.70
2023-03-14T15:36:38.882Z,7.60
2023-03-14T15:39:06.779Z,7.60
2023-03-14T15:41:33.697Z,7.70
2023-03-14T15:44:00.555Z,7.70
2023-03-14T15:46:29.824Z,7.80
2023-03-14T15:48:57.697Z,7.70
2023-03-14T15:51:24.509Z,7.60
2023-03-14T15:53:52.475Z,7.50
2023-03-14T15:56:20.941Z,7.40
2023-03-14T15:58:47.913Z,7.30
2023-03-14T16:01:16.820Z,7.30
2023-03-14T16:03:47.484Z,7.20
2023-03-14T16:06:15.232Z,7.10
2023-03-14T16:08:43.186Z,7.00
2023-03-14T16:11:12.172Z,6.90
2023-03-14T16:13:40.051Z,6.80
2023-03-14T16:16:07.891Z,6.80
2023-03-14T16:18:37.632Z,6.80
2023-03-14T16:21:07.760Z,6.70
2023-03-14T16:23:35.816Z,6.70
2023-03-14T16:26:08.308Z,6.60
2023-03-14T16:28:35.635Z,6.60
2023-03-14T16:31:08.002Z,6.50
2023-03-14T16:33:35.892Z,6.50
2023-03-14T16:36:08.498Z,6.50
2023-03-14T16:38:37.262Z,6.60
2023-03-14T16:41:20.406Z,6.50
2023-03-14T16:43:51.816Z,6.50
2023-03-14T16:46:19.279Z,6.50
2023-03-14T16:48:46.142Z,6.40
2023-03-14T16:51:14.130Z,6.30
2023-03-14T16:53:41.019Z,6.20
2023-03-14T16:56:08.615Z,6.10
2023-03-14T16:58:35.521Z,6.10
2023-03-14T17:01:10.487Z,6.00
2023-03-14T17:03:39.815Z,5.90
2023-03-14T17:06:07.424Z,5.90
2023-03-14T17:08:34.285Z,5.80
2023-03-14T17:11:01.152Z,5.80
2023-03-14T17:13:28.236Z,5.80
2023-03-14T17:15:56.349Z,5.80
2023-03-14T17:18:24.758Z,5.70
2023-03-14T17:20:52.764Z,5.70
2023-03-14T17:23:20.717Z,5.70
2023-03-14T17:25:48.781Z,5.70
2023-03-14T17:28:15.982Z,5.60
2023-03-14T17:30:42.774Z,5.50
2023-03-14T17:33:09.704Z,5.50
2023-03-14T17:35:36.620Z,5.50
2023-03-14T17:38:03.642Z,5.50
2023-03-14T17:40:30.755Z,5.40
2023-03-14T17:42:57.779Z,5.40
2023-03-14T17:45:24.664Z,5.30
2023-03-14T17:47:51.503Z,5.30
2023-03-14T17:50:18.439Z,5.20
2023-03-14T17:52:45.207Z,5.20
2023-03-14T17:55:12.086Z,5.10
2023-03-14T17:57:40.154Z,5.10
2023-03-14T18:00:11.490Z,5.10
2023-03-14T18:02:38.954Z,5.00
2023-03-14T18:05:07.930Z,5.00
2023-03-14T18:07:35.582Z,4.90
2023-03-14T18:10:03.820Z,4.90
2023-03-14T18:12:30.712Z,4.90
2023-03-14T18:14:57.532Z,4.90
2023-03-14T18:17:24.333Z,4.90
2023-03-14T18:19:51.163Z,4.80
2023-03-14T18:22:18.049Z,4.80
2023-03-14T18:24:44.812Z,4.80
2023-03-14T18:27:11.598Z,4.80
2023-03-14T18:29:38.999Z,4.80
2023-03-14T18:32:05.877Z,4.80
2023-03-14T18:34:33.334Z,4.90
2023-03-14T18:37:01.036Z,4.80
2023-03-14T18:39:28.178Z,4.80
2023-03-14T18:41:54.984Z,4.80
2023-03-14T18:44:21.763Z,4.80
2023-03-14T18:46:48.699Z,4.70
2023-03-14T18:49:15.696Z,4.70
2023-03-14T18:51:43.357Z,4.70
2023-03-14T18:54:11.531Z,4.70
2023-03-14T18:56:40.442Z,4.70
2023-03-14T18:59:08.885Z,4.70
2023-03-14T19:01:36.797Z,4.70
2023-03-14T19:04:04.647Z,4.60
2023-03-14T19:06:34.463Z,4.60
2023-03-14T19:09:02.368Z,4.50
2023-03-14T19:11:29.283Z,4.50
2023-03-14T19:13:56.845Z,4.50
2023-03-14T19:16:24.678Z,4.50
2023-03-14T19:18:55.487Z,4.50
2023-03-14T19:21:35.762Z,4.40
2023-03-14T19:24:05.449Z,4.40
2023-03-14T19:26:34.236Z,4.40
2023-03-14T19:29:01.086Z,4.40
2023-03-14T19:31:28.010Z,4.30
2023-03-14T19:33:54.928Z,4.30
2023-03-14T19:36:28.440Z,4.30
2023-03-14T19:38:55.712Z,4.30
2023-03-14T19:41:24.361Z,4.30
2023-03-14T19:43:52.325Z,4.30
2023-03-14T19:46:19.373Z,4.20
2023-03-14T19:48:46.396Z,4.30
2023-03-14T19:51:14.105Z,4.20
2023-03-14T19:53:44.691Z,4.20
2023-03-14T19:56:12.146Z,4.20
2023-03-14T19:58:39.619Z,4.20
2023-03-14T20:01:12.645Z,4.20
2023-03-14T20:03:39.642Z,4.10
2023-03-14T20:06:08.704Z,4.10
2023-03-14T20:08:35.897Z,4.10
2023-03-14T20:11:06.691Z,4.00
2023-03-14T20:13:33.572Z,4.00
2023-03-14T20:16:03.919Z,4.00
2023-03-14T20:18:31.250Z,4.00
2023-03-14T20:20:58.165Z,4.00
2023-03-14T20:23:26.099Z,4.00
2023-03-14T20:25:54.861Z,4.00
2023-03-14T20:28:22.144Z,3.90
2023-03-14T20:30:49.435Z,3.90
2023-03-14T20:33:18.459Z,3.90
2023-03-14T20:35:56.137Z,3.80
2023-03-14T20:38:26.228Z,3.80
2023-03-14T20:40:56.166Z,3.80
2023-03-14T20:43:23.077Z,3.80
2023-03-14T20:45:58.136Z,3.70
2023-03-14T20:48:26.455Z,3.70
2023-03-14T20:50:54.012Z,3.70
2023-03-14T20:53:21.253Z,3.70
2023-03-14T20:55:48.549Z,3.60
2023-03-14T20:58:15.737Z,3.60
2023-03-14T21:00:48.070Z,3.50
2023-03-14T21:03:16.270Z,3.50
2023-03-14T21:05:46.381Z,3.50
2023-03-14T21:08:14.622Z,3.40
2023-03-14T21:10:41.471Z,3.40
2023-03-14T21:13:08.305Z,3.40
2023-03-14T21:15:37.513Z,3.40
2023-03-14T21:18:05.582Z,3.40
2023-03-14T21:20:34.338Z,3.30
2023-03-14T21:23:01.171Z,3.30
2023-03-14T21:25:28.243Z,3.30
2023-03-14T21:27:55.126Z,3.20
2023-03-14T21:30:22.134Z,3.20
2023-03-14T21:32:49.071Z,3.20
2023-03-14T21:35:16.026Z,3.20
2023-03-14T21:37:42.866Z,3.20
2023-03-14T21:40:11.122Z,3.10
2023-03-14T21:42:37.958Z,3.10
2023-03-14T21:45:05.799Z,3.00
2023-03-14T21:47:32.893Z,3.00
2023-03-14T21:49:59.661Z,3.00
2023-03-14T21:52:26.564Z,3.00
2023-03-14T21:54:54.021Z,2.90
2023-03-14T21:57:20.754Z,2.90
2023-03-14T21:59:47.599Z,2.90
2023-03-14T22:02:17.937Z,2.90
2023-03-14T22:04:44.927Z,2.80
2023-03-14T22:07:15.673Z,2.80
2023-03-14T22:09:45.393Z,2.80
2023-03-14T22:12:17.230Z,2.80
2023-03-14T22:14:44.222Z,2.70
2023-03-14T22:17:11.408Z,2.70
2023-03-14T22:19:38.325Z,2.70
2023-03-14T22:22:05.181Z,2.60
2023-03-14T22:24:31.966Z,2.60
2023-03-14T22:26:58.730Z,2.70
2023-03-14T22:29:26.572Z,2.70
2023-03-14T22:31:53.448Z,2.60
2023-03-14T22:34:21.210Z,2.60
2023-03-14T22:36:48.117Z,2.50
2023-03-14T22:39:15.061Z,2.50
2023-03-14T22:41:41.837Z,2.50
2023-03-14T22:44:08.624Z,2.50
2023-03-14T22:46:35.440Z,2.50
2023-03-14T22:49:02.262Z,2.50
2023-03-14T22:51:29.055Z,2.60
2023-03-14T22:53:55.957Z,2.60
2023-03-14T22:56:22.797Z,2.60
2023-03-14T22:58:50.307Z,2.70
2023-03-14T23:01:17.225Z,2.70
2023-03-14T23:03:44.015Z,2.70
2023-03-14T23:06:10.815Z,2.70
2023-03-14T23:08:37.997Z,2.70
2023-03-14T23:11:06.447Z,2.70
2023-03-14T23:13:34.749Z,2.70
2023-03-14T23:16:01.926Z,2.80
2023-03-14T23:18:29.384Z,2.80
2023-03-14T23:21:13.187Z,2.80
2023-03-14T23:23:41.041Z,2.80
2023-03-14T23:26:10.777Z,2.90
2023-03-14T23:28:38.229Z,3.00
2023-03-14T23:31:06.317Z,3.00
2023-03-14T23:33:35.033Z,3.10
2023-03-14T23:36:04.056Z,3.10
2023-03-14T23:38:32.528Z,3.10
2023-03-14T23:41:01.181Z,3.20
2023-03-14T23:43:28.943Z,3.30
2023-03-14T23:45:56.983Z,3.30
2023-03-14T23:48:29.296Z,3.30
2023-03-14T23:50:57.345Z,3.40
2023-03-14T23:53:26.001Z,3.40
2023-03-14T23:55:52.929Z,3.40
2023-03-14T23:58:21.371Z,3.50
